createdAt,value
2018-07-26T07:34:25.525Z,51.80
2018-07-26T07:35:28.349Z,51.37
2018-07-26T07:36:31.439Z,51.83
2018-07-26T07:37:34.910Z,50.93
2018-07-26T07:38:37.515Z,50.30
2018-07-26T07:39:40.542Z,50.18
2018-07-26T07:40:43.328Z,50.51
2018-07-26T07:41:46.267Z,51.29
2018-07-26T07:42:49.380Z,49.91
2018-07-26T07:43:52.517Z,50.73
2018-07-26T07:44:55.501Z,49.89
2018-07-26T07:45:58.639Z,49.96
2018-07-26T07:47:01.216Z,49.71
2018-07-26T07:48:03.884Z,49.45
2018-07-26T07:49:06.499Z,50.66
2018-07-26T07:50:09.192Z,50.65
2018-07-26T07:51:11.894Z,49.71
2018-07-26T07:52:14.922Z,50.54
2018-07-26T07:53:17.497Z,50.56
2018-07-26T07:54:20.925Z,50.61
2018-07-26T07:55:23.502Z,50.34
2018-07-26T07:56:26.066Z,50.37
2018-07-26T07:57:28.608Z,49.68
2018-07-26T07:58:31.470Z,50.39
2018-07-26T20:22:10.915Z,50.74
2018-07-26T20:23:13.735Z,50.43
2018-07-26T20:24:16.280Z,50.67
2018-07-26T20:25:18.930Z,50.16
2018-07-26T20:26:21.511Z,49.10
2018-07-26T20:27:25.057Z,48.93
2018-07-26T20:28:27.610Z,48.48
2018-07-26T20:29:30.197Z,48.74
2018-07-26T20:30:32.762Z,49.28
2018-07-26T20:31:35.824Z,49.25
2018-07-26T20:32:38.432Z,49.64
2018-07-26T20:33:41.535Z,49.48
2018-07-26T20:34:45.061Z,49.54
2018-07-26T20:35:47.649Z,49.29
2018-07-26T20:36:50.834Z,48.59
2018-07-26T20:37:53.512Z,49.43
2018-07-26T20:38:57.557Z,48.94
2018-07-26T20:40:00.623Z,49.51
2018-07-26T20:41:03.221Z,49.47
2018-07-26T20:42:05.792Z,48.59
2018-07-26T20:43:08.352Z,49.17
2018-07-26T20:44:12.071Z,48.50
2018-07-26T20:45:14.611Z,49.22
2018-07-26T20:46:17.821Z,48.19
2018-07-26T20:47:20.438Z,46.70
2018-07-26T20:48:23.088Z,45.72
2018-07-26T20:49:25.634Z,43.47
2018-07-26T20:50:28.182Z,44.12
2018-07-26T20:51:30.770Z,43.70
2018-07-26T20:52:33.832Z,43.21
2018-07-26T20:53:36.450Z,41.45
2018-07-26T20:54:39.032Z,42.02
2018-07-26T20:55:41.604Z,40.77
2018-07-26T20:56:44.203Z,41.85
2018-07-26T20:57:46.771Z,40.60
2018-07-26T20:58:49.848Z,40.29
2018-07-26T20:59:52.731Z,41.21
2018-07-26T21:00:55.272Z,41.04
2018-07-26T21:01:57.866Z,40.53
2018-07-26T21:03:01.561Z,41.47
2018-07-26T21:04:04.299Z,41.33
2018-07-26T21:05:07.264Z,41.47
2018-07-26T21:06:10.598Z,41.56
2018-07-26T21:07:16.502Z,41.89
2018-07-26T21:08:20.289Z,41.17
2018-07-26T21:10:32.081Z,41.60
2018-07-26T21:11:34.727Z,41.88
2018-07-26T21:12:38.844Z,40.98
2018-07-26T21:13:42.220Z,41.63
2018-07-26T21:14:45.777Z,41.49
2018-07-26T21:15:48.369Z,40.50
2018-07-26T21:16:51.399Z,41.49
2018-07-26T21:17:53.937Z,40.87
2018-07-26T21:18:56.494Z,40.75
2018-07-26T21:20:00.045Z,41.95
2018-07-26T21:21:02.640Z,41.45
2018-07-26T21:22:05.256Z,41.27
2018-07-26T21:23:08.457Z,41.81
